sensor_id;sensor_type;location;lat;lon;timestamp;P1;durP1;ratioP1;P2;durP2;ratioP2
57327;SDS011;43162;51.040;18.244;2023-06-14T00:01:21;7.00;;;4.10;;
57327;SDS011;43162;51.040;18.244;2023-06-14T00:03:47;6.60;;;4.10;;
57327;SDS011;43162;51.040;18.244;2023-06-14T00:06:13;6.10;;;4.20;;
57327;SDS011;43162;51.040;18.244;2023-06-14T00:08:39;5.70;;;4.20;;
57327;SDS011;43162;51.040;18.244;2023-06-14T00:11:06;8.60;;;3.80;;
57327;SDS011;43162;51.040;18.244;2023-06-14T00:13:31;6.40;;;3.80;;
57327;SDS011;43162;51.040;18.244;2023-06-14T00:15:57;7.90;;;3.70;;
57327;SDS011;43162;51.040;18.244;2023-06-14T00:18:22;6.90;;;4.00;;
57327;SDS011;43162;51.040;18.244;2023-06-14T00:20:51;8.00;;;3.70;;
57327;SDS011;43162;51.040;18.244;2023-06-14T00:23:17;6.10;;;3.90;;
57327;SDS011;43162;51.040;18.244;2023-06-14T00:25:43;5.80;;;4.00;;
57327;SDS011;43162;51.040;18.244;2023-06-14T00:28:08;10.20;;;4.50;;
57327;SDS011;43162;51.040;18.244;2023-06-14T00:30:34;6.40;;;3.90;;
57327;SDS011;43162;51.040;18.244;2023-06-14T00:33:00;5.90;;;3.80;;
57327;SDS011;43162;51.040;18.244;2023-06-14T00:35:25;6.30;;;3.90;;
57327;SDS011;43162;51.040;18.244;2023-06-14T00:37:51;7.30;;;4.10;;
57327;SDS011;43162;51.040;18.244;2023-06-14T00:40:17;6.40;;;3.70;;
57327;SDS011;43162;51.040;18.244;2023-06-14T00:42:42;5.80;;;3.60;;
57327;SDS011;43162;51.040;18.244;2023-06-14T00:45:08;6.70;;;3.60;;
57327;SDS011;43162;51.040;18.244;2023-06-14T00:47:35;4.20;;;3.10;;
57327;SDS011;43162;51.040;18.244;2023-06-14T00:50:01;5.50;;;3.90;;
57327;SDS011;43162;51.040;18.244;2023-06-14T00:52:27;6.30;;;3.50;;
57327;SDS011;43162;51.040;18.244;2023-06-14T00:54:52;6.30;;;3.70;;
57327;SDS011;43162;51.040;18.244;2023-06-14T00:57:18;5.30;;;4.00;;
57327;SDS011;43162;51.040;18.244;2023-06-14T00:59:45;8.80;;;4.50;;
57327;SDS011;43162;51.040;18.244;2023-06-14T01:02:11;9.00;;;4.00;;
57327;SDS011;43162;51.040;18.244;2023-06-14T01:04:37;5.50;;;4.00;;
57327;SDS011;43162;51.040;18.244;2023-06-14T01:09:42;6.20;;;4.50;;
57327;SDS011;43162;51.040;18.244;2023-06-14T01:12:21;6.70;;;4.50;;
57327;SDS011;43162;51.040;18.244;2023-06-14T01:14:50;7.10;;;4.40;;
57327;SDS011;43162;51.040;18.244;2023-06-14T01:17:16;9.80;;;5.30;;
57327;SDS011;43162;51.040;18.244;2023-06-14T01:19:43;9.70;;;6.10;;
57327;SDS011;43162;51.040;18.244;2023-06-14T01:22:09;9.30;;;5.40;;
57327;SDS011;43162;51.040;18.244;2023-06-14T01:24:35;9.20;;;5.30;;
57327;SDS011;43162;51.040;18.244;2023-06-14T01:27:01;8.40;;;5.30;;
57327;SDS011;43162;51.040;18.244;2023-06-14T01:29:26;8.50;;;6.20;;
57327;SDS011;43162;51.040;18.244;2023-06-14T01:31:53;9.90;;;6.40;;
57327;SDS011;43162;51.040;18.244;2023-06-14T01:34:19;11.20;;;7.60;;
57327;SDS011;43162;51.040;18.244;2023-06-14T01:36:45;9.90;;;7.20;;
57327;SDS011;43162;51.040;18.244;2023-06-14T01:39:11;10.60;;;7.10;;
57327;SDS011;43162;51.040;18.244;2023-06-14T01:41:39;14.10;;;9.30;;
57327;SDS011;43162;51.040;18.244;2023-06-14T01:44:05;13.30;;;8.50;;
57327;SDS011;43162;51.040;18.244;2023-06-14T01:46:31;11.70;;;7.50;;
57327;SDS011;43162;51.040;18.244;2023-06-14T01:48:57;11.20;;;7.00;;
57327;SDS011;43162;51.040;18.244;2023-06-14T01:51:23;13.20;;;7.30;;
57327;SDS011;43162;51.040;18.244;2023-06-14T01:53:49;12.50;;;7.50;;
57327;SDS011;43162;51.040;18.244;2023-06-14T01:56:14;8.10;;;6.20;;
57327;SDS011;43162;51.040;18.244;2023-06-14T01:58:40;8.80;;;6.10;;
57327;SDS011;43162;51.040;18.244;2023-06-14T02:01:06;8.00;;;5.80;;
57327;SDS011;43162;51.040;18.244;2023-06-14T02:03:32;12.40;;;6.80;;
57327;SDS011;43162;51.040;18.244;2023-06-14T02:05:58;8.50;;;6.20;;
57327;SDS011;43162;51.040;18.244;2023-06-14T02:08:23;11.30;;;6.00;;
57327;SDS011;43162;51.040;18.244;2023-06-14T02:10:49;7.80;;;5.80;;
57327;SDS011;43162;51.040;18.244;2023-06-14T02:13:14;11.10;;;6.40;;
57327;SDS011;43162;51.040;18.244;2023-06-14T02:15:40;10.20;;;6.10;;
57327;SDS011;43162;51.040;18.244;2023-06-14T02:18:09;9.80;;;5.80;;
57327;SDS011;43162;51.040;18.244;2023-06-14T02:20:35;10.20;;;6.30;;
57327;SDS011;43162;51.040;18.244;2023-06-14T02:23:01;8.00;;;5.80;;
57327;SDS011;43162;51.040;18.244;2023-06-14T02:25:26;7.90;;;5.80;;
57327;SDS011;43162;51.040;18.244;2023-06-14T02:27:53;9.50;;;5.30;;
57327;SDS011;43162;51.040;18.244;2023-06-14T02:30:19;9.00;;;6.30;;
57327;SDS011;43162;51.040;18.244;2023-06-14T02:32:45;11.00;;;5.70;;
57327;SDS011;43162;51.040;18.244;2023-06-14T02:35:12;7.20;;;5.60;;
57327;SDS011;43162;51.040;18.244;2023-06-14T02:37:38;7.00;;;5.40;;
57327;SDS011;43162;51.040;18.244;2023-06-14T02:40:04;8.80;;;6.30;;
57327;SDS011;43162;51.040;18.244;2023-06-14T02:42:31;10.80;;;7.60;;
57327;SDS011;43162;51.040;18.244;2023-06-14T02:44:56;14.70;;;7.80;;
57327;SDS011;43162;51.040;18.244;2023-06-14T02:47:22;14.00;;;7.80;;
57327;SDS011;43162;51.040;18.244;2023-06-14T02:49:48;11.70;;;7.70;;
57327;SDS011;43162;51.040;18.244;2023-06-14T02:52:14;10.20;;;7.30;;
57327;SDS011;43162;51.040;18.244;2023-06-14T02:54:39;9.60;;;7.00;;
57327;SDS011;43162;51.040;18.244;2023-06-14T02:57:05;10.50;;;7.30;;
57327;SDS011;43162;51.040;18.244;2023-06-14T02:59:33;11.70;;;7.10;;
57327;SDS011;43162;51.040;18.244;2023-06-14T03:01:59;9.70;;;8.10;;
57327;SDS011;43162;51.040;18.244;2023-06-14T03:04:24;9.20;;;6.90;;
57327;SDS011;43162;51.040;18.244;2023-06-14T03:06:51;11.30;;;7.40;;
57327;SDS011;43162;51.040;18.244;2023-06-14T03:09:17;17.00;;;9.90;;
57327;SDS011;43162;51.040;18.244;2023-06-14T03:11:42;14.70;;;9.90;;
57327;SDS011;43162;51.040;18.244;2023-06-14T03:14:08;17.50;;;9.50;;
57327;SDS011;43162;51.040;18.244;2023-06-14T03:16:33;15.50;;;9.00;;
57327;SDS011;43162;51.040;18.244;2023-06-14T03:18:59;13.60;;;9.40;;
57327;SDS011;43162;51.040;18.244;2023-06-14T03:21:25;16.20;;;9.40;;
57327;SDS011;43162;51.040;18.244;2023-06-14T03:23:51;14.80;;;9.50;;
57327;SDS011;43162;51.040;18.244;2023-06-14T03:26:18;12.80;;;9.20;;
57327;SDS011;43162;51.040;18.244;2023-06-14T03:28:44;15.50;;;9.70;;
57327;SDS011;43162;51.040;18.244;2023-06-14T03:31:10;13.40;;;9.40;;
57327;SDS011;43162;51.040;18.244;2023-06-14T03:33:36;13.70;;;9.00;;
57327;SDS011;43162;51.040;18.244;2023-06-14T03:36:01;12.10;;;9.70;;
57327;SDS011;43162;51.040;18.244;2023-06-14T03:38:27;11.70;;;9.10;;
57327;SDS011;43162;51.040;18.244;2023-06-14T03:40:53;16.50;;;9.40;;
57327;SDS011;43162;51.040;18.244;2023-06-14T03:43:18;15.60;;;8.90;;
57327;SDS011;43162;51.040;18.244;2023-06-14T03:45:44;14.50;;;9.50;;
57327;SDS011;43162;51.040;18.244;2023-06-14T03:48:10;11.50;;;9.10;;
57327;SDS011;43162;51.040;18.244;2023-06-14T03:50:35;11.20;;;9.70;;
57327;SDS011;43162;51.040;18.244;2023-06-14T03:53:06;14.40;;;10.40;;
57327;SDS011;43162;51.040;18.244;2023-06-14T03:55:31;14.10;;;9.40;;
57327;SDS011;43162;51.040;18.244;2023-06-14T03:57:58;14.40;;;9.80;;
57327;SDS011;43162;51.040;18.244;2023-06-14T04:00:24;12.50;;;9.90;;
57327;SDS011;43162;51.040;18.244;2023-06-14T04:02:50;12.70;;;9.70;;
57327;SDS011;43162;51.040;18.244;2023-06-14T04:05:15;12.00;;;9.20;;
57327;SDS011;43162;51.040;18.244;2023-06-14T04:07:42;14.40;;;9.10;;
57327;SDS011;43162;51.040;18.244;2023-06-14T04:10:13;13.50;;;10.30;;
57327;SDS011;43162;51.040;18.244;2023-06-14T04:12:38;14.80;;;9.70;;
57327;SDS011;43162;51.040;18.244;2023-06-14T04:15:04;14.90;;;9.70;;
57327;SDS011;43162;51.040;18.244;2023-06-14T04:17:34;12.80;;;8.90;;
57327;SDS011;43162;51.040;18.244;2023-06-14T04:20:00;12.30;;;9.30;;
57327;SDS011;43162;51.040;18.244;2023-06-14T04:22:28;12.00;;;10.20;;
57327;SDS011;43162;51.040;18.244;2023-06-14T04:24:55;15.50;;;10.50;;
57327;SDS011;43162;51.040;18.244;2023-06-14T04:27:25;11.40;;;9.50;;
57327;SDS011;43162;51.040;18.244;2023-06-14T04:29:51;13.20;;;9.70;;
57327;SDS011;43162;51.040;18.244;2023-06-14T04:32:18;13.00;;;10.40;;
57327;SDS011;43162;51.040;18.244;2023-06-14T04:34:44;12.90;;;9.30;;
57327;SDS011;43162;51.040;18.244;2023-06-14T04:37:10;18.10;;;10.00;;
57327;SDS011;43162;51.040;18.244;2023-06-14T04:39:37;14.40;;;8.90;;
57327;SDS011;43162;51.040;18.244;2023-06-14T04:42:03;13.10;;;9.60;;
57327;SDS011;43162;51.040;18.244;2023-06-14T04:44:28;10.50;;;9.20;;
57327;SDS011;43162;51.040;18.244;2023-06-14T04:46:57;11.60;;;9.40;;
57327;SDS011;43162;51.040;18.244;2023-06-14T04:49:24;12.60;;;9.60;;
57327;SDS011;43162;51.040;18.244;2023-06-14T04:51:49;12.20;;;9.40;;
57327;SDS011;43162;51.040;18.244;2023-06-14T04:54:23;12.70;;;10.20;;
57327;SDS011;43162;51.040;18.244;2023-06-14T04:56:50;11.80;;;10.10;;
57327;SDS011;43162;51.040;18.244;2023-06-14T04:59:16;17.10;;;10.00;;
57327;SDS011;43162;51.040;18.244;2023-06-14T05:01:42;12.20;;;10.30;;
57327;SDS011;43162;51.040;18.244;2023-06-14T05:06:38;13.80;;;9.90;;
57327;SDS011;43162;51.040;18.244;2023-06-14T05:09:03;10.30;;;9.00;;
57327;SDS011;43162;51.040;18.244;2023-06-14T05:11:29;16.30;;;9.10;;
57327;SDS011;43162;51.040;18.244;2023-06-14T05:13:54;13.00;;;9.30;;
57327;SDS011;43162;51.040;18.244;2023-06-14T05:16:20;12.40;;;9.10;;
57327;SDS011;43162;51.040;18.244;2023-06-14T05:18:49;15.00;;;9.90;;
57327;SDS011;43162;51.040;18.244;2023-06-14T05:21:14;14.80;;;9.80;;
57327;SDS011;43162;51.040;18.244;2023-06-14T05:23:46;11.90;;;9.30;;
57327;SDS011;43162;51.040;18.244;2023-06-14T05:26:12;13.00;;;10.20;;
57327;SDS011;43162;51.040;18.244;2023-06-14T05:28:38;13.70;;;9.80;;
57327;SDS011;43162;51.040;18.244;2023-06-14T05:31:03;10.90;;;9.30;;
57327;SDS011;43162;51.040;18.244;2023-06-14T05:33:29;13.60;;;9.60;;
57327;SDS011;43162;51.040;18.244;2023-06-14T05:35:54;12.90;;;9.50;;
57327;SDS011;43162;51.040;18.244;2023-06-14T05:38:20;11.90;;;9.50;;
57327;SDS011;43162;51.040;18.244;2023-06-14T05:40:46;10.40;;;9.40;;
57327;SDS011;43162;51.040;18.244;2023-06-14T05:43:12;15.30;;;10.20;;
57327;SDS011;43162;51.040;18.244;2023-06-14T05:45:38;15.40;;;9.00;;
57327;SDS011;43162;51.040;18.244;2023-06-14T05:48:03;12.70;;;9.60;;
57327;SDS011;43162;51.040;18.244;2023-06-14T05:50:29;11.30;;;9.10;;
57327;SDS011;43162;51.040;18.244;2023-06-14T05:52:54;14.40;;;8.90;;
57327;SDS011;43162;51.040;18.244;2023-06-14T05:55:20;11.00;;;8.60;;
57327;SDS011;43162;51.040;18.244;2023-06-14T05:57:45;14.80;;;9.30;;
57327;SDS011;43162;51.040;18.244;2023-06-14T06:00:13;10.40;;;8.20;;
57327;SDS011;43162;51.040;18.244;2023-06-14T06:02:43;11.30;;;8.80;;
57327;SDS011;43162;51.040;18.244;2023-06-14T06:05:10;14.70;;;8.70;;
57327;SDS011;43162;51.040;18.244;2023-06-14T06:07:37;12.90;;;7.30;;
57327;SDS011;43162;51.040;18.244;2023-06-14T06:10:03;10.30;;;7.60;;
57327;SDS011;43162;51.040;18.244;2023-06-14T06:12:28;12.80;;;6.70;;
57327;SDS011;43162;51.040;18.244;2023-06-14T06:14:54;7.70;;;5.80;;
57327;SDS011;43162;51.040;18.244;2023-06-14T06:17:20;11.30;;;6.00;;
57327;SDS011;43162;51.040;18.244;2023-06-14T06:19:48;10.40;;;5.70;;
57327;SDS011;43162;51.040;18.244;2023-06-14T06:22:14;11.70;;;6.70;;
57327;SDS011;43162;51.040;18.244;2023-06-14T06:24:39;8.10;;;5.90;;
57327;SDS011;43162;51.040;18.244;2023-06-14T06:27:05;9.90;;;7.30;;
57327;SDS011;43162;51.040;18.244;2023-06-14T06:29:33;10.50;;;6.10;;
57327;SDS011;43162;51.040;18.244;2023-06-14T06:31:58;9.90;;;6.50;;
57327;SDS011;43162;51.040;18.244;2023-06-14T06:34:24;15.30;;;6.80;;
57327;SDS011;43162;51.040;18.244;2023-06-14T06:36:50;11.70;;;7.30;;
57327;SDS011;43162;51.040;18.244;2023-06-14T06:39:16;20.00;;;7.90;;
57327;SDS011;43162;51.040;18.244;2023-06-14T06:41:41;8.40;;;6.50;;
57327;SDS011;43162;51.040;18.244;2023-06-14T06:44:07;14.20;;;7.50;;
57327;SDS011;43162;51.040;18.244;2023-06-14T06:46:32;8.80;;;6.70;;
57327;SDS011;43162;51.040;18.244;2023-06-14T06:48:58;11.80;;;7.80;;
57327;SDS011;43162;51.040;18.244;2023-06-14T06:51:24;9.20;;;6.60;;
57327;SDS011;43162;51.040;18.244;2023-06-14T06:53:53;9.30;;;6.90;;
57327;SDS011;43162;51.040;18.244;2023-06-14T06:56:19;8.60;;;6.40;;
57327;SDS011;43162;51.040;18.244;2023-06-14T06:58:47;11.00;;;6.80;;
57327;SDS011;43162;51.040;18.244;2023-06-14T07:01:13;12.50;;;7.00;;
57327;SDS011;43162;51.040;18.244;2023-06-14T07:03:39;9.20;;;6.30;;
57327;SDS011;43162;51.040;18.244;2023-06-14T07:06:05;9.60;;;6.40;;
57327;SDS011;43162;51.040;18.244;2023-06-14T07:08:30;16.80;;;6.70;;
57327;SDS011;43162;51.040;18.244;2023-06-14T07:10:56;9.40;;;6.10;;
57327;SDS011;43162;51.040;18.244;2023-06-14T07:13:21;7.20;;;6.30;;
57327;SDS011;43162;51.040;18.244;2023-06-14T07:15:47;12.60;;;6.50;;
57327;SDS011;43162;51.040;18.244;2023-06-14T07:18:13;10.60;;;6.50;;
57327;SDS011;43162;51.040;18.244;2023-06-14T07:20:38;12.20;;;7.00;;
57327;SDS011;43162;51.040;18.244;2023-06-14T07:23:04;7.50;;;5.30;;
57327;SDS011;43162;51.040;18.244;2023-06-14T07:25:30;10.10;;;6.90;;
57327;SDS011;43162;51.040;18.244;2023-06-14T07:27:56;7.70;;;5.90;;
57327;SDS011;43162;51.040;18.244;2023-06-14T07:30:22;10.50;;;6.70;;
57327;SDS011;43162;51.040;18.244;2023-06-14T07:32:51;10.10;;;6.50;;
57327;SDS011;43162;51.040;18.244;2023-06-14T07:35:18;7.80;;;6.30;;
57327;SDS011;43162;51.040;18.244;2023-06-14T07:37:43;8.50;;;6.40;;
57327;SDS011;43162;51.040;18.244;2023-06-14T07:40:09;12.40;;;6.80;;
57327;SDS011;43162;51.040;18.244;2023-06-14T07:42:35;8.40;;;6.40;;
57327;SDS011;43162;51.040;18.244;2023-06-14T07:45:02;9.10;;;6.00;;
57327;SDS011;43162;51.040;18.244;2023-06-14T07:47:27;15.90;;;7.20;;
57327;SDS011;43162;51.040;18.244;2023-06-14T07:49:53;13.10;;;6.50;;
57327;SDS011;43162;51.040;18.244;2023-06-14T07:52:18;9.00;;;6.20;;
57327;SDS011;43162;51.040;18.244;2023-06-14T07:54:45;6.50;;;5.10;;
57327;SDS011;43162;51.040;18.244;2023-06-14T07:57:10;8.40;;;5.20;;
57327;SDS011;43162;51.040;18.244;2023-06-14T07:59:36;10.20;;;5.80;;
57327;SDS011;43162;51.040;18.244;2023-06-14T08:02:02;11.00;;;5.80;;
57327;SDS011;43162;51.040;18.244;2023-06-14T08:04:28;8.00;;;5.50;;
57327;SDS011;43162;51.040;18.244;2023-06-14T08:06:53;6.20;;;5.60;;
57327;SDS011;43162;51.040;18.244;2023-06-14T08:09:19;6.10;;;4.90;;
57327;SDS011;43162;51.040;18.244;2023-06-14T08:11:44;6.70;;;5.40;;
57327;SDS011;43162;51.040;18.244;2023-06-14T08:14:10;7.60;;;5.00;;
57327;SDS011;43162;51.040;18.244;2023-06-14T08:16:36;9.30;;;4.90;;
57327;SDS011;43162;51.040;18.244;2023-06-14T08:19:02;9.00;;;4.40;;
57327;SDS011;43162;51.040;18.244;2023-06-14T08:21:28;5.00;;;4.50;;
57327;SDS011;43162;51.040;18.244;2023-06-14T08:23:57;9.50;;;5.30;;
57327;SDS011;43162;51.040;18.244;2023-06-14T08:26:23;6.70;;;5.20;;
57327;SDS011;43162;51.040;18.244;2023-06-14T08:28:48;10.10;;;6.10;;
57327;SDS011;43162;51.040;18.244;2023-06-14T08:31:14;6.40;;;4.20;;
57327;SDS011;43162;51.040;18.244;2023-06-14T08:33:40;7.40;;;4.60;;
57327;SDS011;43162;51.040;18.244;2023-06-14T08:36:08;7.50;;;5.10;;
57327;SDS011;43162;51.040;18.244;2023-06-14T08:38:34;11.70;;;4.80;;
57327;SDS011;43162;51.040;18.244;2023-06-14T08:41:00;6.30;;;5.00;;
57327;SDS011;43162;51.040;18.244;2023-06-14T08:43:26;8.90;;;4.40;;
57327;SDS011;43162;51.040;18.244;2023-06-14T08:45:57;9.30;;;4.50;;
57327;SDS011;43162;51.040;18.244;2023-06-14T08:48:26;5.20;;;4.70;;
57327;SDS011;43162;51.040;18.244;2023-06-14T08:50:51;5.00;;;4.10;;
57327;SDS011;43162;51.040;18.244;2023-06-14T08:53:18;12.50;;;5.30;;
57327;SDS011;43162;51.040;18.244;2023-06-14T08:55:45;8.10;;;4.80;;
57327;SDS011;43162;51.040;18.244;2023-06-14T08:58:13;6.70;;;4.70;;
57327;SDS011;43162;51.040;18.244;2023-06-14T09:00:40;7.60;;;3.90;;
57327;SDS011;43162;51.040;18.244;2023-06-14T09:03:08;7.10;;;4.10;;
57327;SDS011;43162;51.040;18.244;2023-06-14T09:05:38;9.00;;;4.70;;
57327;SDS011;43162;51.040;18.244;2023-06-14T09:08:04;4.40;;;4.00;;
57327;SDS011;43162;51.040;18.244;2023-06-14T09:10:30;8.20;;;4.10;;
57327;SDS011;43162;51.040;18.244;2023-06-14T09:12:58;6.80;;;4.40;;
57327;SDS011;43162;51.040;18.244;2023-06-14T09:15:25;6.40;;;4.80;;
57327;SDS011;43162;51.040;18.244;2023-06-14T09:17:51;5.70;;;4.50;;
57327;SDS011;43162;51.040;18.244;2023-06-14T09:20:16;5.70;;;4.50;;
57327;SDS011;43162;51.040;18.244;2023-06-14T09:22:43;7.60;;;4.50;;
57327;SDS011;43162;51.040;18.244;2023-06-14T09:25:10;7.40;;;5.00;;
57327;SDS011;43162;51.040;18.244;2023-06-14T09:27:37;7.10;;;4.80;;
57327;SDS011;43162;51.040;18.244;2023-06-14T09:30:05;7.10;;;5.10;;
57327;SDS011;43162;51.040;18.244;2023-06-14T09:32:36;7.00;;;5.50;;
57327;SDS011;43162;51.040;18.244;2023-06-14T09:35:01;10.30;;;5.50;;
57327;SDS011;43162;51.040;18.244;2023-06-14T09:37:28;12.40;;;5.90;;
57327;SDS011;43162;51.040;18.244;2023-06-14T09:39:54;7.00;;;5.90;;
57327;SDS011;43162;51.040;18.244;2023-06-14T09:42:20;9.00;;;4.90;;
57327;SDS011;43162;51.040;18.244;2023-06-14T09:44:49;7.70;;;4.30;;
57327;SDS011;43162;51.040;18.244;2023-06-14T09:47:15;7.00;;;4.80;;
57327;SDS011;43162;51.040;18.244;2023-06-14T09:49:41;8.10;;;5.00;;
57327;SDS011;43162;51.040;18.244;2023-06-14T09:52:06;6.40;;;4.60;;
57327;SDS011;43162;51.040;18.244;2023-06-14T09:54:34;5.50;;;4.50;;
57327;SDS011;43162;51.040;18.244;2023-06-14T09:57:01;9.40;;;4.30;;
57327;SDS011;43162;51.040;18.244;2023-06-14T09:59:27;7.00;;;5.20;;
57327;SDS011;43162;51.040;18.244;2023-06-14T10:01:59;10.60;;;4.80;;
57327;SDS011;43162;51.040;18.244;2023-06-14T10:04:29;5.80;;;3.60;;
57327;SDS011;43162;51.040;18.244;2023-06-14T10:06:57;6.40;;;3.90;;
57327;SDS011;43162;51.040;18.244;2023-06-14T10:09:23;9.80;;;5.20;;
57327;SDS011;43162;51.040;18.244;2023-06-14T10:11:49;5.10;;;4.00;;
57327;SDS011;43162;51.040;18.244;2023-06-14T10:14:16;4.40;;;3.80;;
57327;SDS011;43162;51.040;18.244;2023-06-14T10:16:48;9.70;;;3.90;;
57327;SDS011;43162;51.040;18.244;2023-06-14T10:19:29;5.60;;;4.00;;
57327;SDS011;43162;51.040;18.244;2023-06-14T10:22:06;6.10;;;4.10;;
57327;SDS011;43162;51.040;18.244;2023-06-14T10:24:33;7.20;;;3.90;;
57327;SDS011;43162;51.040;18.244;2023-06-14T10:27:01;6.50;;;3.40;;
57327;SDS011;43162;51.040;18.244;2023-06-14T10:29:29;5.20;;;3.90;;
57327;SDS011;43162;51.040;18.244;2023-06-14T10:31:58;9.90;;;3.90;;
57327;SDS011;43162;51.040;18.244;2023-06-14T10:34:27;8.20;;;3.70;;
57327;SDS011;43162;51.040;18.244;2023-06-14T10:37:03;6.50;;;3.80;;
57327;SDS011;43162;51.040;18.244;2023-06-14T10:39:29;8.60;;;4.60;;
57327;SDS011;43162;51.040;18.244;2023-06-14T10:41:56;4.20;;;3.80;;
57327;SDS011;43162;51.040;18.244;2023-06-14T10:46:47;6.20;;;3.80;;
57327;SDS011;43162;51.040;18.244;2023-06-14T10:49:16;6.60;;;4.30;;
57327;SDS011;43162;51.040;18.244;2023-06-14T10:51:45;7.40;;;4.60;;
57327;SDS011;43162;51.040;18.244;2023-06-14T10:54:14;8.10;;;4.10;;
57327;SDS011;43162;51.040;18.244;2023-06-14T10:56:46;8.40;;;3.50;;
57327;SDS011;43162;51.040;18.244;2023-06-14T10:59:13;10.70;;;4.50;;
57327;SDS011;43162;51.040;18.244;2023-06-14T11:01:58;8.40;;;4.20;;
57327;SDS011;43162;51.040;18.244;2023-06-14T11:04:46;6.50;;;4.20;;
57327;SDS011;43162;51.040;18.244;2023-06-14T11:09:49;7.50;;;4.50;;
57327;SDS011;43162;51.040;18.244;2023-06-14T11:12:19;5.50;;;4.40;;
57327;SDS011;43162;51.040;18.244;2023-06-14T11:14:46;6.30;;;4.20;;
57327;SDS011;43162;51.040;18.244;2023-06-14T11:17:15;6.80;;;3.40;;
57327;SDS011;43162;51.040;18.244;2023-06-14T11:19:41;8.30;;;3.60;;
57327;SDS011;43162;51.040;18.244;2023-06-14T11:22:06;4.10;;;3.60;;
57327;SDS011;43162;51.040;18.244;2023-06-14T11:24:32;9.10;;;4.00;;
57327;SDS011;43162;51.040;18.244;2023-06-14T11:26:59;5.40;;;4.10;;
57327;SDS011;43162;51.040;18.244;2023-06-14T11:29:24;7.70;;;3.90;;
57327;SDS011;43162;51.040;18.244;2023-06-14T11:31:50;4.60;;;3.80;;
57327;SDS011;43162;51.040;18.244;2023-06-14T11:34:16;3.90;;;3.40;;
57327;SDS011;43162;51.040;18.244;2023-06-14T11:36:42;8.70;;;4.60;;
57327;SDS011;43162;51.040;18.244;2023-06-14T11:39:08;8.30;;;3.50;;
57327;SDS011;43162;51.040;18.244;2023-06-14T11:41:43;5.60;;;3.40;;
57327;SDS011;43162;51.040;18.244;2023-06-14T11:44:09;6.90;;;3.00;;
57327;SDS011;43162;51.040;18.244;2023-06-14T11:46:35;6.00;;;3.10;;
57327;SDS011;43162;51.040;18.244;2023-06-14T11:49:01;3.40;;;3.10;;
57327;SDS011;43162;51.040;18.244;2023-06-14T11:51:32;7.10;;;3.20;;
57327;SDS011;43162;51.040;18.244;2023-06-14T11:53:58;7.70;;;3.80;;
57327;SDS011;43162;51.040;18.244;2023-06-14T11:56:24;6.30;;;3.30;;
57327;SDS011;43162;51.040;18.244;2023-06-14T11:58:50;5.30;;;3.20;;
57327;SDS011;43162;51.040;18.244;2023-06-14T12:01:17;6.10;;;3.80;;
57327;SDS011;43162;51.040;18.244;2023-06-14T12:03:49;5.30;;;3.10;;
57327;SDS011;43162;51.040;18.244;2023-06-14T12:06:15;5.40;;;3.40;;
57327;SDS011;43162;51.040;18.244;2023-06-14T12:08:42;5.70;;;3.40;;
57327;SDS011;43162;51.040;18.244;2023-06-14T12:11:11;4.80;;;3.80;;
57327;SDS011;43162;51.040;18.244;2023-06-14T12:13:40;6.80;;;3.40;;
57327;SDS011;43162;51.040;18.244;2023-06-14T12:16:09;5.50;;;3.40;;
57327;SDS011;43162;51.040;18.244;2023-06-14T12:18:36;5.30;;;3.30;;
57327;SDS011;43162;51.040;18.244;2023-06-14T12:21:08;5.90;;;3.70;;
57327;SDS011;43162;51.040;18.244;2023-06-14T12:23:53;4.70;;;3.10;;
57327;SDS011;43162;51.040;18.244;2023-06-14T12:26:19;5.50;;;3.50;;
57327;SDS011;43162;51.040;18.244;2023-06-14T12:28:45;3.90;;;3.40;;
57327;SDS011;43162;51.040;18.244;2023-06-14T12:31:11;5.70;;;3.00;;
57327;SDS011;43162;51.040;18.244;2023-06-14T12:33:38;4.90;;;3.30;;
57327;SDS011;43162;51.040;18.244;2023-06-14T12:36:04;4.80;;;2.80;;
57327;SDS011;43162;51.040;18.244;2023-06-14T12:38:31;3.80;;;3.20;;
57327;SDS011;43162;51.040;18.244;2023-06-14T12:40:56;5.00;;;3.30;;
57327;SDS011;43162;51.040;18.244;2023-06-14T12:43:23;4.90;;;3.60;;
57327;SDS011;43162;51.040;18.244;2023-06-14T12:45:49;4.20;;;3.20;;
57327;SDS011;43162;51.040;18.244;2023-06-14T12:48:14;7.20;;;3.60;;
57327;SDS011;43162;51.040;18.244;2023-06-14T12:50:40;4.10;;;3.10;;
57327;SDS011;43162;51.040;18.244;2023-06-14T12:53:06;6.30;;;3.40;;
57327;SDS011;43162;51.040;18.244;2023-06-14T12:55:32;7.00;;;3.10;;
57327;SDS011;43162;51.040;18.244;2023-06-14T12:57:58;4.40;;;3.60;;
57327;SDS011;43162;51.040;18.244;2023-06-14T13:00:23;6.00;;;3.60;;
57327;SDS011;43162;51.040;18.244;2023-06-14T13:02:51;6.10;;;3.30;;
57327;SDS011;43162;51.040;18.244;2023-06-14T13:05:17;5.60;;;3.20;;
57327;SDS011;43162;51.040;18.244;2023-06-14T13:07:42;6.50;;;3.80;;
57327;SDS011;43162;51.040;18.244;2023-06-14T13:10:08;6.50;;;4.10;;
57327;SDS011;43162;51.040;18.244;2023-06-14T13:12:33;7.70;;;4.10;;
57327;SDS011;43162;51.040;18.244;2023-06-14T13:14:59;5.50;;;3.70;;
57327;SDS011;43162;51.040;18.244;2023-06-14T13:17:25;5.10;;;3.50;;
57327;SDS011;43162;51.040;18.244;2023-06-14T13:19:50;5.00;;;3.40;;
57327;SDS011;43162;51.040;18.244;2023-06-14T13:22:16;7.30;;;3.50;;
57327;SDS011;43162;51.040;18.244;2023-06-14T13:24:41;3.70;;;3.30;;
57327;SDS011;43162;51.040;18.244;2023-06-14T13:27:06;3.70;;;3.20;;
57327;SDS011;43162;51.040;18.244;2023-06-14T13:29:32;3.10;;;2.90;;
57327;SDS011;43162;51.040;18.244;2023-06-14T13:31:58;4.50;;;3.60;;
57327;SDS011;43162;51.040;18.244;2023-06-14T13:34:25;5.60;;;2.90;;
57327;SDS011;43162;51.040;18.244;2023-06-14T13:36:50;3.00;;;2.50;;
57327;SDS011;43162;51.040;18.244;2023-06-14T13:39:16;4.00;;;3.00;;
57327;SDS011;43162;51.040;18.244;2023-06-14T13:41:41;4.40;;;2.90;;
57327;SDS011;43162;51.040;18.244;2023-06-14T13:44:07;3.90;;;3.50;;
57327;SDS011;43162;51.040;18.244;2023-06-14T13:46:32;4.60;;;4.00;;
57327;SDS011;43162;51.040;18.244;2023-06-14T13:48:58;4.50;;;3.60;;
57327;SDS011;43162;51.040;18.244;2023-06-14T13:51:25;5.20;;;3.20;;
57327;SDS011;43162;51.040;18.244;2023-06-14T13:53:52;5.00;;;3.70;;
57327;SDS011;43162;51.040;18.244;2023-06-14T13:56:18;5.60;;;3.60;;
57327;SDS011;43162;51.040;18.244;2023-06-14T13:58:44;7.30;;;3.80;;
57327;SDS011;43162;51.040;18.244;2023-06-14T14:01:10;3.90;;;3.00;;
57327;SDS011;43162;51.040;18.244;2023-06-14T14:03:36;3.70;;;3.10;;
57327;SDS011;43162;51.040;18.244;2023-06-14T14:06:02;4.50;;;3.20;;
57327;SDS011;43162;51.040;18.244;2023-06-14T14:08:28;4.10;;;3.50;;
57327;SDS011;43162;51.040;18.244;2023-06-14T14:10:54;5.60;;;3.50;;
57327;SDS011;43162;51.040;18.244;2023-06-14T14:13:21;4.80;;;3.40;;
57327;SDS011;43162;51.040;18.244;2023-06-14T14:15:46;5.50;;;3.40;;
57327;SDS011;43162;51.040;18.244;2023-06-14T14:18:14;3.50;;;3.20;;
57327;SDS011;43162;51.040;18.244;2023-06-14T14:20:40;4.50;;;3.20;;
57327;SDS011;43162;51.040;18.244;2023-06-14T14:23:06;4.50;;;2.90;;
57327;SDS011;43162;51.040;18.244;2023-06-14T14:25:31;4.60;;;3.40;;
57327;SDS011;43162;51.040;18.244;2023-06-14T14:27:57;4.40;;;3.30;;
57327;SDS011;43162;51.040;18.244;2023-06-14T14:30:22;6.10;;;3.80;;
57327;SDS011;43162;51.040;18.244;2023-06-14T14:32:49;5.60;;;3.50;;
57327;SDS011;43162;51.040;18.244;2023-06-14T14:35:15;4.00;;;2.90;;